Time;durP1;ratioP1;P1;durP2;ratioP2;P2;SDS_P1;SDS_P2;PMS_P1;PMS_P2;Temp;Humidity;BMP_temperature;BMP_pressure;BME280_temperature;BME280_humidity;BME280_pressure;Samples;Min_cycle;Max_cycle;Signal;HPM_P1;HPM_P2
2021/12/29 00:02:01;;;;;;;;;;;;;;;9.72;79.16;100020.41;5052452;28;19920;-69
2021/12/29 00:04:27;;;;;;;;;;;;;;;9.70;79.52;100019.81;5051600;28;19921;-69
2021/12/29 00:06:54;;;;;;;;;;;;;;;9.69;79.03;100021.75;5049305;28;19917;-69
2021/12/29 00:09:19;;;;;;;;;;;;;;;9.67;79.47;100028.66;5053069;28;19917;-69
2021/12/29 00:11:45;;;;;;;;;;;;;;;9.68;79.25;100030.34;5051343;28;20272;-69
2021/12/29 00:14:10;;;;;;;;;;;;;;;9.69;79.60;100052.25;5049379;28;19932;-69
2021/12/29 00:16:35;;;;;;;;;;;;;;;9.69;79.27;100052.25;5051830;28;19924;-69
2021/12/29 00:19:04;;;;;;;;;;;;;;;9.67;79.19;100068.31;5046088;28;19972;-69
2021/12/29 00:21:32;;;;;;;;;;;;;;;9.67;79.28;100078.53;5050255;28;19921;-69
2021/12/29 00:23:59;;;;;;;;;;;;;;;9.67;79.21;100084.09;5053180;28;19995;-70
2021/12/29 00:26:28;;;;;;;;;;;;;;;9.69;79.12;100082.72;5050004;28;19924;-70
2021/12/29 00:28:54;;;;;;;;;;;;;;;9.70;79.29;100091.88;5051037;28;19967;-70
2021/12/29 00:31:19;;;;;;;;;;;;;;;9.70;79.10;100089.94;5049607;28;19977;-70
2021/12/29 00:33:44;;;;;;;;;;;;;;;9.67;79.07;100087.72;5050990;28;19925;-69
2021/12/29 00:36:09;;;;;;;;;;;;;;;9.67;79.41;100095.16;5052289;28;19994;-69
2021/12/29 00:38:35;;;;;;;;;;;;;;;9.66;79.43;100093.50;5052248;28;20285;-69
2021/12/29 00:41:00;;;;;;;;;;;;;;;9.67;79.47;100103.47;5051197;28;19921;-69
2021/12/29 00:43:25;;;;;;;;;;;;;;;9.69;79.22;100104.88;5051337;28;20000;-69
2021/12/29 00:45:51;;;;;;;;;;;;;;;9.73;79.31;100121.81;5051854;28;19928;-69
2021/12/29 00:48:17;;;;;;;;;;;;;;;9.74;79.34;100117.94;5048015;28;20037;-69
2021/12/29 00:50:43;;;;;;;;;;;;;;;9.73;79.40;100125.44;5051328;28;19999;-70
2021/12/29 00:53:08;;;;;;;;;;;;;;;9.68;79.24;100127.34;5051614;28;20020;-70
2021/12/29 00:55:34;;;;;;;;;;;;;;;9.67;79.50;100133.97;5053088;28;19992;-69
2021/12/29 00:58:00;;;;;;;;;;;;;;;9.69;79.20;100134.53;5055479;28;20284;-69
2021/12/29 01:00:25;;;;;;;;;;;;;;;9.70;79.31;100136.22;5051445;28;19971;-69
2021/12/29 01:02:50;;;;;;;;;;;;;;;9.71;79.31;100140.66;5051180;28;19975;-69
2021/12/29 01:05:17;;;;;;;;;;;;;;;9.73;79.18;100152.31;5053076;28;19970;-70
2021/12/29 01:07:44;;;;;;;;;;;;;;;9.75;79.23;100155.66;5054702;28;20379;-70
2021/12/29 01:10:10;;;;;;;;;;;;;;;9.75;78.93;100156.50;5050085;28;20018;-69
2021/12/29 01:12:35;;;;;;;;;;;;;;;9.75;79.12;100169.53;5054609;28;19994;-69
2021/12/29 01:15:02;;;;;;;;;;;;;;;9.73;79.24;100171.72;5049848;28;19921;-69
2021/12/29 01:17:27;;;;;;;;;;;;;;;9.71;79.36;100176.69;5053883;28;20268;-69
2021/12/29 01:19:54;;;;;;;;;;;;;;;9.72;79.15;100181.13;5056377;28;19921;-69
2021/12/29 01:22:19;;;;;;;;;;;;;;;9.69;79.30;100185.25;5055292;28;20423;-69
2021/12/29 01:24:46;;;;;;;;;;;;;;;9.64;79.43;100185.22;5054940;28;19967;-70
2021/12/29 01:27:12;;;;;;;;;;;;;;;9.62;79.33;100198.47;5053699;28;19974;-70
2021/12/29 01:29:37;;;;;;;;;;;;;;;9.63;79.36;100199.31;5053318;28;19928;-70
2021/12/29 01:32:02;;;;;;;;;;;;;;;9.65;79.11;100203.50;5054860;28;19925;-69
2021/12/29 01:34:27;;;;;;;;;;;;;;;9.67;79.72;100208.78;5052921;28;20019;-69
2021/12/29 01:36:53;;;;;;;;;;;;;;;9.68;79.37;100229.88;5054767;28;19921;-69
2021/12/29 01:39:19;;;;;;;;;;;;;;;9.68;79.06;100230.69;5055817;28;20015;-69
2021/12/29 01:41:46;;;;;;;;;;;;;;;9.69;79.05;100243.44;5054698;28;20379;-69
2021/12/29 01:44:11;;;;;;;;;;;;;;;9.68;78.84;100247.31;5053948;28;20378;-70
2021/12/29 01:46:37;;;;;;;;;;;;;;;9.72;79.22;100255.94;5054960;28;19969;-69
2021/12/29 01:49:03;;;;;;;;;;;;;;;9.73;79.18;100249.31;5054703;28;20334;-70
2021/12/29 01:51:30;;;;;;;;;;;;;;;9.74;79.23;100253.75;5052086;28;19921;-69
2021/12/29 01:56:51;;;;;;;;;;;;;;;9.74;79.13;100256.50;5052946;28;19920;-69
2021/12/29 01:59:16;;;;;;;;;;;;;;;9.72;79.08;100256.78;5050136;28;19925;-69
2021/12/29 02:01:42;;;;;;;;;;;;;;;9.71;79.10;100265.38;5054299;28;19982;-69
2021/12/29 02:04:07;;;;;;;;;;;;;;;9.70;79.19;100277.53;5054116;28;19921;-70
2021/12/29 02:06:33;;;;;;;;;;;;;;;9.70;78.91;100277.53;5049678;28;19937;-70
2021/12/29 02:08:58;;;;;;;;;;;;;;;9.71;79.29;100277.28;5050506;28;19928;-70
2021/12/29 02:11:29;;;;;;;;;;;;;;;9.72;79.25;100283.66;5053604;28;19920;-69
2021/12/29 02:13:58;;;;;;;;;;;;;;;9.73;79.15;100277.00;5054185;28;20409;-70
2021/12/29 02:16:23;;;;;;;;;;;;;;;9.72;79.15;100292.81;5053812;28;19921;-69
2021/12/29 02:18:52;;;;;;;;;;;;;;;9.72;78.81;100300.28;5053589;28;19943;-69
2021/12/29 02:21:20;;;;;;;;;;;;;;;9.71;79.00;100295.84;5049727;28;19960;-69
2021/12/29 02:24:03;;;;;;;;;;;;;;;9.72;78.87;100298.34;5054765;28;19921;-70
2021/12/29 02:26:30;;;;;;;;;;;;;;;9.74;78.84;100295.31;5051200;28;19921;-69
2021/12/29 02:28:56;;;;;;;;;;;;;;;9.75;79.25;100297.00;5050005;28;20364;-69
2021/12/29 02:31:22;;;;;;;;;;;;;;;9.73;78.85;100291.72;5052760;28;19990;-70
2021/12/29 02:33:47;;;;;;;;;;;;;;;9.71;78.74;100302.22;5054476;28;19925;-69
2021/12/29 02:36:16;;;;;;;;;;;;;;;9.70;79.53;100296.94;5053309;28;20405;-70
2021/12/29 02:38:46;;;;;;;;;;;;;;;9.68;78.77;100299.97;5051976;28;19921;-70
2021/12/29 02:41:11;;;;;;;;;;;;;;;9.67;78.99;100303.84;5053287;28;19921;-69
2021/12/29 02:43:38;;;;;;;;;;;;;;;9.65;79.08;100311.56;5050760;28;20391;-70
2021/12/29 02:46:11;;;;;;;;;;;;;;;9.63;78.99;100310.16;5053382;28;19926;-70
2021/12/29 02:48:38;;;;;;;;;;;;;;;9.63;78.92;100305.47;5053597;28;19921;-70
2021/12/29 02:51:07;;;;;;;;;;;;;;;9.66;79.13;100301.31;5052859;28;20513;-69
2021/12/29 02:53:32;;;;;;;;;;;;;;;9.64;79.24;100304.38;5053867;28;19928;-69
2021/12/29 02:55:57;;;;;;;;;;;;;;;9.61;79.29;100296.56;5053867;28;19928;-70
2021/12/29 02:58:24;;;;;;;;;;;;;;;9.61;79.03;100299.34;5052604;28;19974;-69
2021/12/29 03:00:50;;;;;;;;;;;;;;;9.62;79.19;100308.47;5049117;28;19995;-70
2021/12/29 03:03:19;;;;;;;;;;;;;;;9.64;79.05;100322.94;5049565;28;20019;-69
2021/12/29 03:05:46;;;;;;;;;;;;;;;9.66;79.36;100324.31;5050006;28;21441;-69
2021/12/29 03:08:12;;;;;;;;;;;;;;;9.68;78.95;100321.31;5052208;28;20028;-69
2021/12/29 03:10:38;;;;;;;;;;;;;;;9.68;78.90;100335.16;5052464;28;20265;-69
2021/12/29 03:13:03;;;;;;;;;;;;;;;9.68;78.99;100346.25;5050052;28;20020;-69
2021/12/29 03:15:28;;;;;;;;;;;;;;;9.69;78.74;100347.91;5053247;28;19921;-69
2021/12/29 03:17:53;;;;;;;;;;;;;;;9.69;78.84;100353.47;5052736;28;19921;-70
2021/12/29 03:20:18;;;;;;;;;;;;;;;9.68;78.84;100357.34;5053361;28;19974;-69
2021/12/29 03:22:44;;;;;;;;;;;;;;;9.67;78.90;100358.41;5052687;28;19960;-69
2021/12/29 03:25:09;;;;;;;;;;;;;;;9.69;78.84;100361.78;5051350;28;19921;-70
2021/12/29 03:27:34;;;;;;;;;;;;;;;9.67;78.86;100362.03;5053162;28;19929;-69
2021/12/29 03:29:59;;;;;;;;;;;;;;;9.66;78.86;100376.13;5052829;28;19928;-69
2021/12/29 03:32:38;;;;;;;;;;;;;;;9.65;78.92;100378.06;5051891;28;19959;-69
2021/12/29 03:35:03;;;;;;;;;;;;;;;9.65;78.85;100385.56;5040983;28;19921;-70
2021/12/29 03:37:28;;;;;;;;;;;;;;;9.61;78.53;100382.47;5050350;28;19929;-70
2021/12/29 03:39:54;;;;;;;;;;;;;;;9.61;78.88;100387.16;5053137;28;19973;-70
2021/12/29 03:42:19;;;;;;;;;;;;;;;9.61;78.61;100387.16;5051551;28;19921;-70
2021/12/29 03:44:44;;;;;;;;;;;;;;;9.61;79.01;100396.31;5052778;28;20046;-69
2021/12/29 03:47:09;;;;;;;;;;;;;;;9.58;78.86;100392.13;5052446;28;19925;-70
2021/12/29 03:49:34;;;;;;;;;;;;;;;9.57;79.02;100396.00;5047240;28;20353;-70
2021/12/29 03:51:59;;;;;;;;;;;;;;;9.58;78.94;100402.38;5049134;28;19921;-70
2021/12/29 03:54:25;;;;;;;;;;;;;;;9.59;79.21;100398.53;5050525;28;19928;-69
2021/12/29 03:56:50;;;;;;;;;;;;;;;9.59;78.94;100415.16;5051810;28;19933;-69
2021/12/29 03:59:16;;;;;;;;;;;;;;;9.60;79.02;100427.91;5050989;28;19920;-69
2021/12/29 04:01:41;;;;;;;;;;;;;;;9.61;78.61;100423.19;5040398;28;20433;-69
2021/12/29 04:04:07;;;;;;;;;;;;;;;9.63;78.85;100426.53;5030945;28;20015;-70
2021/12/29 04:06:32;;;;;;;;;;;;;;;9.61;79.11;100425.97;5033079;28;20007;-70
2021/12/29 04:08:57;;;;;;;;;;;;;;;9.59;78.91;100427.06;5030740;28;20000;-70
2021/12/29 04:11:22;;;;;;;;;;;;;;;9.62;78.66;100420.16;5030412;28;20331;-70
2021/12/29 04:13:47;;;;;;;;;;;;;;;9.63;78.89;100420.97;5032334;28;19925;-70
2021/12/29 04:16:17;;;;;;;;;;;;;;;9.63;78.92;100420.97;5031640;28;19921;-70
2021/12/29 04:18:55;;;;;;;;;;;;;;;9.62;78.76;100427.63;5031070;28;19929;-70
2021/12/29 04:21:20;;;;;;;;;;;;;;;9.62;78.82;100427.63;5031930;28;19921;-70
2021/12/29 04:23:45;;;;;;;;;;;;;;;9.64;79.02;100429.06;5033323;28;19924;-70
2021/12/29 04:26:11;;;;;;;;;;;;;;;9.65;78.61;100432.66;5027910;28;19929;-71
2021/12/29 04:28:36;;;;;;;;;;;;;;;9.66;78.86;100437.94;5032265;28;19936;-70
2021/12/29 04:31:05;;;;;;;;;;;;;;;9.66;78.75;100435.16;5034352;28;19966;-71
2021/12/29 04:33:31;;;;;;;;;;;;;;;9.66;78.67;100443.47;5035290;28;19924;-71
2021/12/29 04:35:56;;;;;;;;;;;;;;;9.65;78.81;100452.06;5035574;28;20284;-70
2021/12/29 04:38:23;;;;;;;;;;;;;;;9.66;78.70;100459.28;5035648;28;19921;-70
2021/12/29 04:40:50;;;;;;;;;;;;;;;9.62;78.77;100452.56;5035681;28;19929;-70
2021/12/29 04:43:16;;;;;;;;;;;;;;;9.62;78.92;100460.88;5033150;28;19944;-70
2021/12/29 04:45:41;;;;;;;;;;;;;;;9.63;78.67;100468.09;5034926;28;20534;-70
2021/12/29 04:48:12;;;;;;;;;;;;;;;9.65;78.55;100465.91;5036138;28;19925;-70
2021/12/29 04:50:38;;;;;;;;;;;;;;;9.66;78.42;100484.22;5035322;28;19936;-70
2021/12/29 04:53:04;;;;;;;;;;;;;;;9.66;78.40;100484.22;5035672;28;19929;-70
2021/12/29 04:55:30;;;;;;;;;;;;;;;9.67;78.47;100483.97;5033380;28;20004;-70
2021/12/29 04:57:55;;;;;;;;;;;;;;;9.66;78.60;100492.53;5035665;28;20360;-70
2021/12/29 05:00:23;;;;;;;;;;;;;;;9.63;78.69;100495.81;5033192;28;19975;-70
2021/12/29 05:02:49;;;;;;;;;;;;;;;9.63;78.60;100501.34;5046205;28;19928;-70
2021/12/29 05:10:33;;;;;;;;;;;;;;;9.65;78.37;100494.47;5041714;28;19927;-70
2021/12/29 05:12:58;;;;;;;;;;;;;;;9.66;78.79;100492.53;5055391;28;19983;-71
2021/12/29 05:15:23;;;;;;;;;;;;;;;9.64;78.47;100487.25;5052686;28;20392;-69
2021/12/29 05:17:48;;;;;;;;;;;;;;;9.65;78.72;100485.31;5051820;28;19955;-69
2021/12/29 05:20:14;;;;;;;;;;;;;;;9.66;78.51;100489.75;5053654;28;20022;-70
2021/12/29 05:22:39;;;;;;;;;;;;;;;9.66;78.39;100492.53;5055561;28;19921;-70
2021/12/29 05:25:04;;;;;;;;;;;;;;;9.66;78.44;100490.59;5053511;28;20007;-69
2021/12/29 05:27:30;;;;;;;;;;;;;;;9.66;78.26;100489.75;5054908;28;19928;-71
2021/12/29 05:29:55;;;;;;;;;;;;;;;9.67;78.18;100500.59;5054012;28;19975;-70
2021/12/29 05:32:21;;;;;;;;;;;;;;;9.67;78.77;100495.06;5053523;28;20285;-69
2021/12/29 05:34:46;;;;;;;;;;;;;;;9.63;78.50;100495.81;5052968;28;20295;-69
2021/12/29 05:37:11;;;;;;;;;;;;;;;9.58;78.29;100505.72;5050167;28;19921;-68
2021/12/29 05:39:36;;;;;;;;;;;;;;;9.58;78.56;100504.88;5053333;28;19932;-68
2021/12/29 05:42:01;;;;;;;;;;;;;;;9.61;78.68;100515.47;5046108;28;20011;-70
2021/12/29 05:44:27;;;;;;;;;;;;;;;9.61;78.46;100509.94;5053493;28;19925;-69
2021/12/29 05:46:52;;;;;;;;;;;;;;;9.62;78.59;100508.00;5046189;28;19921;-70
2021/12/29 05:49:17;;;;;;;;;;;;;;;9.62;78.30;100519.06;5044769;28;20043;-69
2021/12/29 05:51:42;;;;;;;;;;;;;;;9.63;78.52;100516.06;5052005;28;19927;-69
2021/12/29 05:54:07;;;;;;;;;;;;;;;9.63;78.23;100504.13;5050351;28;20009;-69
2021/12/29 05:56:33;;;;;;;;;;;;;;;9.62;78.56;100514.38;5051421;28;19921;-69
2021/12/29 05:59:01;;;;;;;;;;;;;;;9.63;78.34;100512.44;5051162;28;19920;-69
2021/12/29 06:01:28;;;;;;;;;;;;;;;9.62;78.08;100513.53;5048496;28;19936;-69
2021/12/29 06:03:53;;;;;;;;;;;;;;;9.63;78.19;100513.28;5029718;28;20368;-69
2021/12/29 06:06:19;;;;;;;;;;;;;;;9.63;78.59;100516.06;5034234;28;19928;-69
2021/12/29 06:08:44;;;;;;;;;;;;;;;9.66;78.38;100517.47;5034643;28;19925;-68
2021/12/29 06:11:09;;;;;;;;;;;;;;;9.66;78.29;100520.25;5019677;28;19967;-68
2021/12/29 06:13:34;;;;;;;;;;;;;;;9.63;78.01;100527.16;5030032;28;19925;-68
2021/12/29 06:15:59;;;;;;;;;;;;;;;9.62;78.49;100533.75;5024709;28;19929;-69
2021/12/29 06:18:24;;;;;;;;;;;;;;;9.61;78.16;100534.03;5028390;28;19921;-69
2021/12/29 06:20:50;;;;;;;;;;;;;;;9.61;78.43;100547.88;5028181;28;19921;-70
2021/12/29 06:23:15;;;;;;;;;;;;;;;9.61;78.43;100550.66;5023324;28;19921;-69
2021/12/29 06:25:41;;;;;;;;;;;;;;;9.61;78.44;100550.66;5030362;28;19976;-70
2021/12/29 06:28:06;;;;;;;;;;;;;;;9.60;78.05;100555.38;5033016;28;19921;-69
2021/12/29 06:30:32;;;;;;;;;;;;;;;9.62;78.16;100557.88;5029338;28;19921;-70
2021/12/29 06:32:57;;;;;;;;;;;;;;;9.62;78.32;100555.94;5032898;28;20007;-69
2021/12/29 06:35:22;;;;;;;;;;;;;;;9.60;78.22;100560.91;5027645;28;19929;-69
2021/12/29 06:37:48;;;;;;;;;;;;;;;9.61;78.16;100564.50;5031687;28;20703;-70
2021/12/29 06:40:14;;;;;;;;;;;;;;;9.62;78.10;100568.94;5029958;28;19975;-67
2021/12/29 06:42:39;;;;;;;;;;;;;;;9.61;78.36;100561.75;5028938;28;19921;-67
2021/12/29 06:45:05;;;;;;;;;;;;;;;9.62;77.97;100568.94;5025138;28;19929;-67
2021/12/29 06:47:30;;;;;;;;;;;;;;;9.63;77.94;100568.72;5021717;28;19931;-69
2021/12/29 06:49:55;;;;;;;;;;;;;;;9.65;78.16;100571.22;5024618;28;19972;-67
2021/12/29 06:52:20;;;;;;;;;;;;;;;9.64;78.13;100581.47;5029144;28;19928;-66
2021/12/29 06:54:46;;;;;;;;;;;;;;;9.66;78.02;100573.72;5020217;28;20324;-69
2021/12/29 06:57:12;;;;;;;;;;;;;;;9.67;78.31;100577.34;5024894;28;19925;-67
2021/12/29 06:59:37;;;;;;;;;;;;;;;9.66;78.05;100581.22;5028390;28;20036;-69
2021/12/29 07:02:02;;;;;;;;;;;;;;;9.64;77.74;100572.31;5034723;28;19925;-68
2021/12/29 07:04:28;;;;;;;;;;;;;;;9.62;78.08;100563.41;5039638;28;19924;-68
2021/12/29 07:06:53;;;;;;;;;;;;;;;9.63;78.03;100570.63;5042539;28;19924;-68
2021/12/29 07:09:19;;;;;;;;;;;;;;;9.64;77.81;100573.16;5041885;28;19921;-68
2021/12/29 07:11:45;;;;;;;;;;;;;;;9.64;78.02;100575.09;5049351;28;19928;-67
2021/12/29 07:14:10;;;;;;;;;;;;;;;9.63;78.24;100585.34;5048334;28;19932;-68
2021/12/29 07:16:37;;;;;;;;;;;;;;;9.63;78.03;100595.56;5045500;28;19925;-67
2021/12/29 07:19:02;;;;;;;;;;;;;;;9.62;77.80;100597.50;5046045;28;19985;-67
2021/12/29 07:21:28;;;;;;;;;;;;;;;9.63;78.00;100599.19;5058523;28;19928;-67
2021/12/29 07:23:54;;;;;;;;;;;;;;;9.65;77.85;100596.16;5045805;28;20022;-66
2021/12/29 07:26:19;;;;;;;;;;;;;;;9.65;77.98;100607.25;5040971;28;19982;-66
2021/12/29 07:28:44;;;;;;;;;;;;;;;9.65;78.04;100607.25;5045344;28;20358;-68
2021/12/29 07:31:10;;;;;;;;;;;;;;;9.66;78.18;100611.69;5049589;28;19943;-69
2021/12/29 07:33:35;;;;;;;;;;;;;;;9.66;77.65;100622.78;5050216;28;19921;-68
2021/12/29 07:36:00;;;;;;;;;;;;;;;9.65;78.11;100619.16;5045144;28;19917;-67
2021/12/29 07:38:25;;;;;;;;;;;;;;;9.66;78.21;100620.84;5050273;28;19916;-68
2021/12/29 07:40:51;;;;;;;;;;;;;;;9.66;77.91;100636.63;5047593;28;20311;-69
2021/12/29 07:43:17;;;;;;;;;;;;;;;9.65;78.09;100632.19;5048789;28;19921;-70
2021/12/29 07:45:43;;;;;;;;;;;;;;;9.65;78.13;100635.78;5056542;28;19924;-69
2021/12/29 07:48:09;;;;;;;;;;;;;;;9.65;77.91;100635.78;5048892;28;19917;-69
2021/12/29 07:50:35;;;;;;;;;;;;;;;9.64;77.88;100617.50;5043149;28;20335;-69
2021/12/29 07:53:00;;;;;;;;;;;;;;;9.62;78.01;100619.66;5052599;28;19974;-69
2021/12/29 07:55:25;;;;;;;;;;;;;;;9.64;77.93;100627.75;5045965;28;19941;-67
2021/12/29 07:57:50;;;;;;;;;;;;;;;9.65;78.06;100626.66;5040297;28;20261;-70
2021/12/29 08:00:16;;;;;;;;;;;;;;;9.63;77.93;100621.38;5046030;28;19967;-70
2021/12/29 08:02:44;;;;;;;;;;;;;;;9.63;77.73;100626.91;5048759;28;19921;-69
2021/12/29 08:05:10;;;;;;;;;;;;;;;9.65;77.64;100629.41;5039304;28;19917;-68
2021/12/29 08:07:35;;;;;;;;;;;;;;;9.66;77.71;100631.09;5049141;28;20295;-68
2021/12/29 08:10:00;;;;;;;;;;;;;;;9.65;77.88;100624.72;5041980;28;19924;-67
2021/12/29 08:12:26;;;;;;;;;;;;;;;9.65;77.92;100629.41;5046736;28;20359;-68
2021/12/29 08:14:51;;;;;;;;;;;;;;;9.66;77.79;100636.63;5045793;28;19924;-69
2021/12/29 08:17:16;;;;;;;;;;;;;;;9.67;77.65;100638.31;5044084;28;19925;-67
2021/12/29 08:19:42;;;;;;;;;;;;;;;9.66;77.59;100636.63;5049272;28;20283;-68
2021/12/29 08:22:08;;;;;;;;;;;;;;;9.68;77.92;100626.16;5044000;28;19996;-69
2021/12/29 08:24:33;;;;;;;;;;;;;;;9.68;77.80;100626.16;5047611;28;20012;-70
2021/12/29 08:26:58;;;;;;;;;;;;;;;9.69;77.99;100630.59;5042721;28;19928;-69
2021/12/29 08:29:23;;;;;;;;;;;;;;;9.68;77.61;100632.53;5039832;28;20439;-69
2021/12/29 08:31:49;;;;;;;;;;;;;;;9.68;77.48;100640.00;5048718;28;19928;-69
2021/12/29 08:34:15;;;;;;;;;;;;;;;9.69;77.68;100652.75;5050664;28;19924;-69
2021/12/29 08:36:40;;;;;;;;;;;;;;;9.67;77.46;100644.72;5050911;28;19933;-69
2021/12/29 08:39:05;;;;;;;;;;;;;;;9.66;77.58;100640.25;5051543;28;20470;-69
2021/12/29 08:41:30;;;;;;;;;;;;;;;9.66;77.82;100637.47;5051643;28;19944;-69
2021/12/29 08:43:56;;;;;;;;;;;;;;;9.66;77.69;100633.84;5049065;28;19921;-69
2021/12/29 08:46:22;;;;;;;;;;;;;;;9.66;77.71;100631.09;5051231;28;19916;-68
2021/12/29 08:48:51;;;;;;;;;;;;;;;9.65;77.55;100635.78;5047177;28;20359;-68
2021/12/29 08:51:17;;;;;;;;;;;;;;;9.65;77.60;100641.34;5040896;28;19966;-68
2021/12/29 08:53:43;;;;;;;;;;;;;;;9.66;77.77;100639.41;5039771;28;20380;-68
2021/12/29 08:56:08;;;;;;;;;;;;;;;9.65;77.46;100641.34;5035637;28;19964;-69
2021/12/29 08:58:33;;;;;;;;;;;;;;;9.65;77.55;100641.34;5046325;28;20299;-70
2021/12/29 09:00:59;;;;;;;;;;;;;;;9.65;77.39;100641.34;5042967;28;19944;-69
2021/12/29 09:03:24;;;;;;;;;;;;;;;9.67;77.50;100649.38;5047567;28;19995;-69
2021/12/29 09:05:50;;;;;;;;;;;;;;;9.68;77.60;100654.69;5040006;28;20467;-69
2021/12/29 09:08:15;;;;;;;;;;;;;;;9.68;77.45;100643.59;5052754;28;20376;-69
2021/12/29 09:10:41;;;;;;;;;;;;;;;9.70;77.49;100635.03;5050619;28;19975;-71
2021/12/29 09:13:07;;;;;;;;;;;;;;;9.70;77.35;100635.03;5045780;28;19936;-69
2021/12/29 09:15:32;;;;;;;;;;;;;;;9.70;77.20;100641.41;5039023;28;19961;-69
2021/12/29 09:17:59;;;;;;;;;;;;;;;9.71;77.07;100642.28;5051694;28;20003;-69
2021/12/29 09:20:31;;;;;;;;;;;;;;;9.71;77.10;100633.97;5049487;28;20344;-70
2021/12/29 09:22:59;;;;;;;;;;;;;;;9.71;76.99;100629.25;5049770;28;19990;-70
2021/12/29 09:25:24;;;;;;;;;;;;;;;9.71;77.16;100631.19;5046215;28;20276;-70
2021/12/29 09:27:50;;;;;;;;;;;;;;;9.72;77.26;100628.16;5046639;28;19925;-69
2021/12/29 09:30:19;;;;;;;;;;;;;;;9.73;77.45;100620.69;5052635;28;19968;-69
2021/12/29 09:32:44;;;;;;;;;;;;;;;9.73;77.25;100623.44;5049789;28;19921;-70
2021/12/29 09:35:11;;;;;;;;;;;;;;;9.71;77.21;100629.25;5050177;28;19936;-70
2021/12/29 09:37:36;;;;;;;;;;;;;;;9.73;77.17;100623.44;5048098;28;20551;-70
2021/12/29 09:40:01;;;;;;;;;;;;;;;9.76;77.12;100634.03;5050118;28;20015;-67
2021/12/29 09:42:26;;;;;;;;;;;;;;;9.80;77.33;100633.28;5050727;28;19925;-65
2021/12/29 09:44:52;;;;;;;;;;;;;;;9.86;77.35;100625.84;5052129;28;20379;-66
2021/12/29 09:47:18;;;;;;;;;;;;;;;9.93;77.07;100631.22;5050594;28;20066;-68
2021/12/29 09:49:43;;;;;;;;;;;;;;;10.00;77.02;100627.19;5043321;28;19924;-68
2021/12/29 09:52:09;;;;;;;;;;;;;;;10.04;77.00;100625.59;5049694;28;19924;-68
2021/12/29 09:54:34;;;;;;;;;;;;;;;10.05;76.72;100618.09;5045387;28;20381;-69
2021/12/29 09:57:00;;;;;;;;;;;;;;;10.01;76.58;100609.44;5050231;28;19925;-68
2021/12/29 09:59:25;;;;;;;;;;;;;;;9.96;76.74;100606.63;5052551;28;19972;-64
2021/12/29 10:01:50;;;;;;;;;;;;;;;9.96;76.80;100614.09;5044072;28;20288;-68
2021/12/29 10:04:16;;;;;;;;;;;;;;;9.96;76.83;100619.66;5048904;28;20392;-69
2021/12/29 10:06:41;;;;;;;;;;;;;;;9.96;76.61;100614.94;5049143;28;20384;-70
2021/12/29 10:09:11;;;;;;;;;;;;;;;9.96;76.61;100626.03;5044040;28;19968;-71
2021/12/29 10:11:37;;;;;;;;;;;;;;;9.98;76.72;100626.63;5046138;28;20287;-72
2021/12/29 10:14:06;;;;;;;;;;;;;;;10.04;76.58;100633.91;5049247;28;19931;-70
2021/12/29 10:16:31;;;;;;;;;;;;;;;10.07;76.56;100624.25;5052977;28;19975;-72
2021/12/29 10:19:04;;;;;;;;;;;;;;;10.09;76.75;100633.97;5047391;28;19933;-69
2021/12/29 10:21:31;;;;;;;;;;;;;;;10.11;76.51;100616.25;5046404;28;20028;-72
2021/12/29 10:23:58;;;;;;;;;;;;;;;10.11;76.54;100617.09;5043827;28;19921;-71
2021/12/29 10:26:24;;;;;;;;;;;;;;;10.09;76.57;100609.00;5045454;28;19968;-72
2021/12/29 10:28:51;;;;;;;;;;;;;;;10.08;76.44;100601.78;5051339;28;19921;-73
2021/12/29 10:31:18;;;;;;;;;;;;;;;10.08;76.13;100595.41;5051801;28;19937;-75
2021/12/29 10:33:46;;;;;;;;;;;;;;;10.05;76.60;100596.75;5050585;28;19966;-75
2021/12/29 10:36:11;;;;;;;;;;;;;;;10.02;76.43;100585.34;5048895;28;19921;-71
2021/12/29 10:38:36;;;;;;;;;;;;;;;10.02;76.62;100585.34;5040326;28;19978;-65
2021/12/29 10:41:03;;;;;;;;;;;;;;;10.01;76.76;100586.44;5037096;28;19921;-66
2021/12/29 10:43:28;;;;;;;;;;;;;;;10.01;76.49;100591.97;5045641;28;19920;-70
2021/12/29 10:45:53;;;;;;;;;;;;;;;10.00;76.73;100585.59;5043600;28;19927;-72
2021/12/29 10:48:28;;;;;;;;;;;;;;;10.01;76.65;100586.44;5050323;28;19921;-74
2021/12/29 10:51:08;;;;;;;;;;;;;;;10.00;76.71;100588.38;5044625;28;19929;-70
2021/12/29 10:53:34;;;;;;;;;;;;;;;9.98;76.64;100585.03;5047905;28;19976;-70
2021/12/29 10:56:00;;;;;;;;;;;;;;;9.98;76.56;100587.81;5041464;28;19921;-69
2021/12/29 10:58:26;;;;;;;;;;;;;;;9.98;76.72;100582.25;5048050;28;20342;-69
2021/12/29 11:01:03;;;;;;;;;;;;;;;9.97;76.67;100588.88;5042565;28;19974;-70
2021/12/29 11:03:29;;;;;;;;;;;;;;;9.97;76.46;100599.13;5046205;28;19921;-70
2021/12/29 11:05:58;;;;;;;;;;;;;;;9.95;76.71;100618.81;5036029;28;19963;-70
2021/12/29 11:08:28;;;;;;;;;;;;;;;9.95;76.81;100609.66;5036805;28;19991;-68
2021/12/29 11:10:55;;;;;;;;;;;;;;;9.95;76.67;100613.25;5048175;28;19924;-67
2021/12/29 11:13:24;;;;;;;;;;;;;;;9.94;76.59;100591.31;5049288;28;19997;-70
2021/12/29 11:15:51;;;;;;;;;;;;;;;9.93;76.65;100593.25;5042835;28;20432;-70
2021/12/29 11:18:17;;;;;;;;;;;;;;;9.92;76.66;100604.63;5051604;28;19927;-70
2021/12/29 11:20:42;;;;;;;;;;;;;;;9.90;76.75;100607.63;5040061;28;19928;-70
2021/12/29 11:23:16;;;;;;;;;;;;;;;9.91;76.80;100606.56;5050173;28;20356;-74
2021/12/29 11:25:42;;;;;;;;;;;;;;;9.93;76.64;100593.25;5039028;28;19920;-71
2021/12/29 11:28:18;;;;;;;;;;;;;;;9.93;76.98;100586.88;5048318;28;19936;-73
2021/12/29 11:30:44;;;;;;;;;;;;;;;9.94;76.67;100585.78;5039392;28;19925;-72
2021/12/29 11:33:10;;;;;;;;;;;;;;;9.94;76.75;100569.13;5045283;28;20287;-72
2021/12/29 11:35:40;;;;;;;;;;;;;;;9.94;76.72;100558.91;5040667;28;19950;-71
2021/12/29 11:38:05;;;;;;;;;;;;;;;9.95;76.80;100559.75;5047317;28;20391;-72
2021/12/29 11:40:32;;;;;;;;;;;;;;;9.95;76.80;100563.34;5040579;28;20106;-69
2021/12/29 11:42:57;;;;;;;;;;;;;;;9.95;76.67;100563.34;5049795;28;20380;-70
2021/12/29 11:45:23;;;;;;;;;;;;;;;9.94;76.74;100563.59;5051060;28;19928;-70
2021/12/29 11:47:49;;;;;;;;;;;;;;;9.93;76.89;100562.75;5048882;28;19932;-70
2021/12/29 11:50:29;;;;;;;;;;;;;;;9.89;77.04;100561.59;5040875;28;19929;-70
2021/12/29 11:53:06;;;;;;;;;;;;;;;9.89;77.14;100567.13;5035601;28;19974;-69
2021/12/29 11:55:32;;;;;;;;;;;;;;;9.91;76.99;100567.75;5043286;28;19925;-69
2021/12/29 11:58:16;;;;;;;;;;;;;;;9.97;77.42;100572.25;5039195;28;20315;-71
2021/12/29 12:00:44;;;;;;;;;;;;;;;9.98;76.69;100570.31;5037180;28;19920;-71
2021/12/29 12:03:14;;;;;;;;;;;;;;;10.00;77.22;100562.59;5043260;28;19921;-72
2021/12/29 12:05:41;;;;;;;;;;;;;;;9.96;76.83;100581.66;5040421;28;19928;-71
2021/12/29 12:08:07;;;;;;;;;;;;;;;9.94;77.01;100578.31;5043150;28;19920;-70
2021/12/29 12:10:35;;;;;;;;;;;;;;;9.94;77.03;100570.00;5040570;28;19927;-69
2021/12/29 12:13:04;;;;;;;;;;;;;;;9.89;76.88;100560.75;5047050;28;19931;-70
2021/12/29 12:15:30;;;;;;;;;;;;;;;9.86;76.87;100559.31;5046017;28;19928;-73
2021/12/29 12:17:56;;;;;;;;;;;;;;;9.87;77.04;100549.94;5043666;28;19921;-70
2021/12/29 12:20:21;;;;;;;;;;;;;;;9.87;77.24;100541.63;5045011;28;20311;-70
2021/12/29 12:22:48;;;;;;;;;;;;;;;9.88;77.09;100540.53;5046140;28;19920;-68
2021/12/29 12:25:17;;;;;;;;;;;;;;;9.82;77.31;100535.97;5042353;28;19971;-69
2021/12/29 12:27:44;;;;;;;;;;;;;;;9.83;77.15;100521.06;5043975;28;19921;-68
2021/12/29 12:30:11;;;;;;;;;;;;;;;9.83;76.91;100515.50;5043485;28;19929;-68
2021/12/29 12:32:45;;;;;;;;;;;;;;;9.83;77.40;100507.19;5039039;28;19925;-70
2021/12/29 12:35:11;;;;;;;;;;;;;;;9.86;77.46;100503.88;5041214;28;19928;-72
2021/12/29 12:37:40;;;;;;;;;;;;;;;9.89;77.34;100520.00;5046447;28;19921;-72
2021/12/29 12:40:20;;;;;;;;;;;;;;;9.89;77.05;100522.78;5046934;28;19921;-70
2021/12/29 12:42:45;;;;;;;;;;;;;;;9.89;77.25;100510.84;5047603;28;19970;-71
2021/12/29 12:45:24;;;;;;;;;;;;;;;9.87;77.34;100513.91;5046469;28;19929;-69
2021/12/29 12:48:00;;;;;;;;;;;;;;;9.86;77.34;100514.13;5036471;28;20360;-69
2021/12/29 12:50:26;;;;;;;;;;;;;;;9.84;77.24;100503.31;5045622;28;19935;-67